Time;durP1;ratioP1;P1;durP2;ratioP2;P2;SDS_P1;SDS_P2;PMS_P1;PMS_P2;Temp;Humidity;BMP_temperature;BMP_pressure;BME280_temperature;BME280_humidity;BME280_pressure;Samples;Min_cycle;Max_cycle;Signal;HPM_P1;HPM_P2
2020/12/07 00:00:49;;;;;;;0.30;0.20;;;;;;;5.35;100.00;98367.38;4995266;28;20508;-48
2020/12/07 00:03:15;;;;;;;0.20;0.10;;;;;;;5.33;100.00;98360.41;4994917;28;20504;-48
2020/12/07 00:05:41;;;;;;;0.20;0.10;;;;;;;5.33;100.00;98358.66;4994826;28;20472;-47
2020/12/07 00:08:07;;;;;;;0.87;0.87;;;;;;;5.35;100.00;98348.94;4982853;28;20462;-48
2020/12/07 00:10:33;;;;;;;0.20;0.10;;;;;;;5.35;100.00;98342.81;4994839;28;20453;-48
2020/12/07 00:13:01;;;;;;;0.20;0.17;;;;;;;5.35;100.00;98332.28;4994461;28;20493;-48
2020/12/07 00:15:27;;;;;;;0.20;0.10;;;;;;;5.45;100.00;98330.97;4994768;28;20473;-48
2020/12/07 00:17:53;;;;;;;0.20;0.10;;;;;;;5.39;100.00;98320.69;4994430;28;20515;-47
2020/12/07 00:20:19;;;;;;;0.20;0.20;;;;;;;5.45;100.00;98340.66;4986909;28;20891;-49
2020/12/07 00:22:45;;;;;;;0.20;0.20;;;;;;;5.46;100.00;98345.00;4994734;28;20835;-49
2020/12/07 00:25:12;;;;;;;0.20;0.20;;;;;;;5.48;100.00;98344.03;4994418;28;20500;-48
2020/12/07 00:27:38;;;;;;;0.20;0.13;;;;;;;5.41;100.00;98333.78;4994444;28;20453;-48
2020/12/07 00:30:06;;;;;;;0.20;0.20;;;;;;;5.41;100.00;98337.28;4994573;28;20461;-48
2020/12/07 00:32:33;;;;;;;0.20;0.13;;;;;;;5.39;100.00;98333.84;4978679;28;20537;-50
2020/12/07 00:35:00;;;;;;;0.20;0.20;;;;;;;5.49;100.00;98337.84;4983355;28;20487;-47
2020/12/07 00:37:26;;;;;;;0.20;0.10;;;;;;;5.41;100.00;98329.38;4983151;28;20465;-48
2020/12/07 00:39:53;;;;;;;0.20;0.10;;;;;;;5.44;100.00;98321.34;4986342;28;21000;-48
2020/12/07 00:42:19;;;;;;;0.20;0.20;;;;;;;5.44;100.00;98326.63;4993870;28;20449;-48
2020/12/07 00:44:45;;;;;;;0.20;0.20;;;;;;;5.40;100.00;98340.84;4994019;28;20489;-48
2020/12/07 00:47:11;;;;;;;0.30;0.20;;;;;;;5.44;100.00;98341.56;4994256;28;20465;-48
2020/12/07 00:49:39;;;;;;;4.57;1.70;;;;;;;5.34;100.00;98334.06;4987612;28;20959;-47
2020/12/07 00:52:06;;;;;;;0.20;0.10;;;;;;;5.41;100.00;98333.78;4991570;28;20449;-48
2020/12/07 00:54:34;;;;;;;0.20;0.10;;;;;;;5.37;100.00;98335.69;4987628;28;20492;-48
2020/12/07 00:57:01;;;;;;;0.20;0.10;;;;;;;5.38;100.00;98342.69;4993764;28;20532;-49
2020/12/07 00:59:31;;;;;;;0.20;0.20;;;;;;;5.37;100.00;98340.97;4993795;28;20450;-48
2020/12/07 01:01:59;;;;;;;0.37;0.37;;;;;;;5.30;100.00;98326.31;4993600;28;20453;-48
2020/12/07 01:04:25;;;;;;;0.20;0.10;;;;;;;5.38;100.00;98323.38;4993806;28;20544;-47
2020/12/07 01:06:51;;;;;;;0.20;0.20;;;;;;;5.36;100.00;98328.72;4993732;28;20445;-48
2020/12/07 01:09:20;;;;;;;0.30;0.20;;;;;;;5.36;100.00;98326.09;4990164;28;20496;-48
2020/12/07 01:11:54;;;;;;;0.97;0.97;;;;;;;5.37;100.00;98317.25;4993477;28;20524;-48
2020/12/07 01:14:21;;;;;;;0.30;0.20;;;;;;;5.38;100.00;98320.75;4993567;28;20465;-47
2020/12/07 01:16:48;;;;;;;0.20;0.10;;;;;;;5.42;100.00;98335.50;4993587;28;20453;-48
2020/12/07 01:19:14;;;;;;;0.20;0.17;;;;;;;5.43;100.00;98332.81;4993602;28;20877;-48
2020/12/07 01:21:41;;;;;;;0.20;0.20;;;;;;;5.39;100.00;98328.59;4993741;28;20456;-47
2020/12/07 01:24:07;;;;;;;0.20;0.13;;;;;;;5.39;100.00;98336.50;4991365;28;21032;-47
2020/12/07 01:26:34;;;;;;;0.20;0.10;;;;;;;5.45;100.00;98338.00;4993135;28;20983;-48
2020/12/07 01:29:03;;;;;;;0.20;0.20;;;;;;;5.41;100.00;98331.16;4993450;28;20453;-47
2020/12/07 01:31:29;;;;;;;0.20;0.10;;;;;;;5.39;100.00;98323.31;4993616;28;20445;-47
2020/12/07 01:33:57;;;;;;;0.20;0.20;;;;;;;5.34;100.00;98317.34;4992959;28;21009;-47
2020/12/07 01:36:23;;;;;;;0.20;0.20;;;;;;;5.32;100.00;98314.78;4986798;28;20454;-46
2020/12/07 01:38:50;;;;;;;0.20;0.10;;;;;;;5.31;100.00;98310.44;4976547;28;21014;-48
2020/12/07 01:41:17;;;;;;;0.20;0.10;;;;;;;5.31;100.00;98317.47;4993284;28;20454;-47
2020/12/07 01:43:44;;;;;;;1.30;1.23;;;;;;;5.30;100.00;98334.22;4992768;28;21042;-46
2020/12/07 01:46:23;;;;;;;0.23;0.10;;;;;;;5.33;100.00;98337.56;4992911;28;20461;-47
2020/12/07 01:48:52;;;;;;;0.20;0.10;;;;;;;5.39;100.00;98344.41;4992939;28;20993;-47
2020/12/07 01:51:19;;;;;;;0.20;0.10;;;;;;;5.32;100.00;98335.84;4993344;28;20449;-48
2020/12/07 01:53:45;;;;;;;0.20;0.10;;;;;;;5.29;100.00;98316.69;4982964;28;20484;-47
2020/12/07 01:56:14;;;;;;;0.30;0.20;;;;;;;5.21;100.00;98302.97;4993351;28;20454;-48
2020/12/07 01:58:41;;;;;;;0.20;0.20;;;;;;;5.20;100.00;98298.59;4993112;28;20790;-48
2020/12/07 02:01:08;;;;;;;0.20;0.10;;;;;;;5.18;100.00;98309.19;4992756;28;20968;-48
2020/12/07 02:03:35;;;;;;;0.30;0.20;;;;;;;5.22;100.00;98307.31;4992685;28;20609;-48
2020/12/07 02:06:01;;;;;;;0.20;0.10;;;;;;;5.19;100.00;98312.69;4992959;28;20449;-47
2020/12/07 02:08:27;;;;;;;0.20;0.20;;;;;;;5.27;100.00;98319.38;4980705;28;20476;-47
2020/12/07 02:10:54;;;;;;;0.30;0.13;;;;;;;5.17;100.00;98322.44;4994631;28;20445;-48
2020/12/07 02:13:21;;;;;;;0.20;0.10;;;;;;;5.13;100.00;98334.88;4996788;28;20453;-47
2020/12/07 02:15:47;;;;;;;0.20;0.20;;;;;;;5.24;100.00;98329.19;4996770;28;21021;-47
2020/12/07 02:18:13;;;;;;;0.20;0.10;;;;;;;5.25;100.00;98341.44;4996480;28;20569;-47
2020/12/07 02:20:39;;;;;;;0.20;0.10;;;;;;;5.27;100.00;98337.81;4996640;28;20930;-48
2020/12/07 02:23:05;;;;;;;0.20;0.10;;;;;;;5.22;100.00;98338.94;4991546;28;20819;-47
2020/12/07 02:25:31;;;;;;;0.20;0.20;;;;;;;5.19;100.00;98345.16;4996744;28;20474;-48
2020/12/07 02:27:57;;;;;;;0.20;0.10;;;;;;;5.21;100.00;98345.97;4996601;28;20450;-47
2020/12/07 02:30:24;;;;;;;0.20;0.20;;;;;;;5.24;100.00;98352.91;4996549;28;20453;-48
2020/12/07 02:32:52;;;;;;;0.30;0.20;;;;;;;5.21;100.00;98353.03;4996394;28;20457;-47
2020/12/07 02:35:19;;;;;;;0.20;0.13;;;;;;;5.26;100.00;98356.31;4996448;28;20465;-49
2020/12/07 02:37:47;;;;;;;0.20;0.20;;;;;;;5.19;100.00;98349.56;4983352;28;20473;-48
2020/12/07 02:40:14;;;;;;;0.20;0.13;;;;;;;5.22;100.00;98342.41;4989836;28;20697;-47
2020/12/07 02:42:41;;;;;;;0.20;0.10;;;;;;;5.25;100.00;98344.06;4970868;28;20449;-47
2020/12/07 02:45:15;;;;;;;0.20;0.20;;;;;;;5.24;100.00;98351.13;4996066;28;20493;-47
2020/12/07 02:47:42;;;;;;;0.20;0.20;;;;;;;5.21;100.00;98353.88;4996762;28;20453;-47
2020/12/07 02:50:10;;;;;;;0.20;0.20;;;;;;;5.30;100.00;98355.28;4995930;28;20519;-47
2020/12/07 02:52:37;;;;;;;0.23;0.20;;;;;;;5.26;100.00;98354.53;4987248;28;20470;-49
2020/12/07 02:55:08;;;;;;;0.20;0.20;;;;;;;5.24;100.00;98355.53;4991630;28;20519;-47
2020/12/07 02:57:35;;;;;;;0.20;0.10;;;;;;;5.28;100.00;98355.34;4996307;28;20457;-47
2020/12/07 03:00:03;;;;;;;0.20;0.10;;;;;;;5.30;100.00;98365.81;4996113;28;20504;-48
2020/12/07 03:02:31;;;;;;;0.20;0.10;;;;;;;5.25;100.00;98357.25;4996444;28;20453;-48
2020/12/07 03:04:57;;;;;;;0.20;0.10;;;;;;;5.28;100.00;98367.66;4979871;28;20489;-47
2020/12/07 03:07:23;;;;;;;0.20;0.20;;;;;;;5.23;100.00;98359.09;4995758;28;20939;-47
2020/12/07 03:09:50;;;;;;;0.20;0.10;;;;;;;5.21;100.00;98345.97;4994222;28;20464;-49
2020/12/07 03:12:16;;;;;;;0.30;0.20;;;;;;;5.20;100.00;98340.75;4995803;28;20453;-49
2020/12/07 03:14:42;;;;;;;0.20;0.10;;;;;;;5.13;100.00;98348.03;4995444;28;20473;-49
2020/12/07 03:17:09;;;;;;;0.20;0.10;;;;;;;5.09;100.00;98343.81;4995686;28;20454;-48
2020/12/07 03:19:35;;;;;;;0.20;0.10;;;;;;;5.05;100.00;98350.94;4981843;28;20465;-49
2020/12/07 03:22:01;;;;;;;0.20;0.10;;;;;;;5.12;100.00;98350.72;4994298;28;20453;-48
2020/12/07 03:24:28;;;;;;;0.20;0.10;;;;;;;5.10;100.00;98342.03;4995294;28;20494;-49
2020/12/07 03:26:54;;;;;;;0.20;0.20;;;;;;;5.09;100.00;98346.44;4994164;28;20449;-49
2020/12/07 03:29:21;;;;;;;0.20;0.10;;;;;;;5.16;100.00;98358.44;4995478;28;20456;-49
2020/12/07 03:31:47;;;;;;;0.20;0.10;;;;;;;5.16;100.00;98344.41;4995297;28;20460;-50
2020/12/07 03:34:13;;;;;;;0.20;0.10;;;;;;;5.09;100.00;98337.69;4983435;28;20481;-49
2020/12/07 03:36:41;;;;;;;0.20;0.10;;;;;;;5.02;100.00;98334.41;4987054;28;20469;-48
2020/12/07 03:39:08;;;;;;;0.20;0.10;;;;;;;5.01;100.00;98330.06;4985003;28;20441;-48
2020/12/07 03:41:34;;;;;;;0.20;0.10;;;;;;;4.98;100.00;98333.66;4995200;28;20460;-49
2020/12/07 03:44:00;;;;;;;0.23;0.17;;;;;;;4.96;100.00;98332.88;4994773;28;20616;-47
2020/12/07 03:46:26;;;;;;;0.20;0.13;;;;;;;4.98;100.00;98351.25;4995252;28;20457;-48
2020/12/07 03:48:53;;;;;;;0.20;0.10;;;;;;;5.10;100.00;98356.06;4984563;28;20465;-48
2020/12/07 03:51:19;;;;;;;0.20;0.20;;;;;;;5.14;100.00;98351.53;4994903;28;20821;-48
2020/12/07 03:53:46;;;;;;;0.20;0.10;;;;;;;5.11;100.00;98355.13;4995061;28;20531;-49
2020/12/07 03:56:12;;;;;;;0.20;0.20;;;;;;;5.10;100.00;98357.81;4995305;28;20453;-49
2020/12/07 03:58:38;;;;;;;0.20;0.10;;;;;;;5.28;100.00;98368.50;4994899;28;20871;-49
2020/12/07 04:01:05;;;;;;;0.23;0.20;;;;;;;5.09;100.00;98377.19;4994575;28;20999;-49
2020/12/07 04:03:33;;;;;;;0.20;0.10;;;;;;;5.08;100.00;98371.06;4980946;28;20492;-49
2020/12/07 04:08:28;;;;;;;0.20;0.10;;;;;;;5.09;100.00;98366.66;4993041;28;20445;-48
2020/12/07 04:10:54;;;;;;;0.27;0.20;;;;;;;5.06;100.00;98365.81;4994569;28;20801;-49
2020/12/07 04:13:21;;;;;;;0.20;0.10;;;;;;;5.11;100.00;98364.81;4994000;28;20465;-49
2020/12/07 04:15:47;;;;;;;0.20;0.13;;;;;;;5.11;100.00;98359.53;4994771;28;20453;-49
2020/12/07 04:18:26;;;;;;;0.20;0.10;;;;;;;5.10;100.00;98361.31;4973515;28;20468;-48
2020/12/07 04:20:53;;;;;;;0.20;0.20;;;;;;;5.08;100.00;98359.66;4994089;28;20460;-47
2020/12/07 04:23:20;;;;;;;0.20;0.10;;;;;;;5.03;100.00;98363.31;4994307;28;20457;-48
2020/12/07 04:25:46;;;;;;;0.20;0.20;;;;;;;5.05;100.00;98379.91;4994088;28;21001;-48
2020/12/07 04:28:12;;;;;;;0.20;0.10;;;;;;;5.00;100.00;98381.00;4994496;28;20460;-47
2020/12/07 04:30:40;;;;;;;0.20;0.10;;;;;;;4.96;100.00;98387.31;4994306;28;20454;-47
2020/12/07 04:33:07;;;;;;;0.20;0.10;;;;;;;4.98;100.00;98391.59;4989880;28;20900;-48
2020/12/07 04:35:33;;;;;;;0.20;0.10;;;;;;;5.10;100.00;98399.97;4993530;28;20453;-47
2020/12/07 04:38:00;;;;;;;1.37;1.37;;;;;;;5.10;100.00;98408.72;4979577;28;20948;-47
2020/12/07 04:40:27;;;;;;;0.23;0.13;;;;;;;5.10;100.00;98406.09;4989122;28;20508;-50
2020/12/07 04:42:55;;;;;;;0.20;0.10;;;;;;;5.11;100.00;98406.94;4993985;28;20969;-48
2020/12/07 04:45:22;;;;;;;3.30;2.17;;;;;;;5.09;100.00;98403.50;4993660;28;20860;-47
2020/12/07 04:47:51;;;;;;;0.20;0.10;;;;;;;5.04;100.00;98411.56;4984332;28;20877;-47
2020/12/07 04:50:18;;;;;;;0.20;0.10;;;;;;;4.98;100.00;98412.66;4989999;28;20457;-48
2020/12/07 04:52:45;;;;;;;0.20;0.10;;;;;;;5.02;100.00;98402.88;4984610;28;20943;-47
2020/12/07 04:55:11;;;;;;;0.20;0.10;;;;;;;5.00;100.00;98405.56;4990241;28;20477;-47
2020/12/07 04:57:37;;;;;;;0.20;0.13;;;;;;;4.96;100.00;98408.38;4993739;28;20508;-47
2020/12/07 05:00:06;;;;;;;0.20;0.10;;;;;;;4.99;100.00;98406.47;4993293;28;20943;-47
2020/12/07 05:02:36;;;;;;;0.20;0.20;;;;;;;4.94;100.00;98399.66;4985143;28;20528;-47
2020/12/07 05:05:04;;;;;;;0.20;0.10;;;;;;;5.00;100.00;98407.31;4990673;28;20999;-47
2020/12/07 05:07:34;;;;;;;0.20;0.10;;;;;;;4.99;100.00;98409.09;4993217;28;20997;-47
2020/12/07 05:10:11;;;;;;;0.20;0.10;;;;;;;4.98;100.00;98398.63;4992143;28;20453;-47
2020/12/07 05:12:42;;;;;;;0.20;0.17;;;;;;;5.02;100.00;98395.81;4993820;28;20491;-47
2020/12/07 05:15:11;;;;;;;0.20;0.10;;;;;;;5.04;100.00;98395.75;4967888;28;20528;-47
2020/12/07 05:17:38;;;;;;;0.30;0.20;;;;;;;5.04;100.00;98406.28;4983056;28;20894;-47
2020/12/07 05:20:05;;;;;;;0.20;0.20;;;;;;;5.02;100.00;98405.50;4992926;28;20969;-47
2020/12/07 05:22:31;;;;;;;0.20;0.10;;;;;;;5.11;100.00;98412.22;4988314;28;20524;-47
2020/12/07 05:24:58;;;;;;;0.20;0.10;;;;;;;5.09;100.00;98409.63;4993398;28;20503;-48
2020/12/07 05:27:27;;;;;;;0.20;0.10;;;;;;;5.11;100.00;98413.06;4992479;28;20503;-48
2020/12/07 05:32:34;;;;;;;0.20;0.10;;;;;;;5.17;100.00;98420.72;4984983;28;20460;-47
2020/12/07 05:35:02;;;;;;;0.20;0.13;;;;;;;5.14;100.00;98415.56;4974125;28;20485;-47
2020/12/07 05:37:32;;;;;;;0.20;0.10;;;;;;;5.11;100.00;98415.69;4978162;28;20501;-47
2020/12/07 05:40:01;;;;;;;0.20;0.10;;;;;;;5.21;100.00;98419.72;4985248;28;20454;-47
2020/12/07 05:42:27;;;;;;;0.20;0.20;;;;;;;5.21;100.00;98419.72;4991423;28;20939;-48
2020/12/07 05:44:56;;;;;;;0.20;0.10;;;;;;;5.12;100.00;98421.81;4989739;28;20493;-49
2020/12/07 05:47:24;;;;;;;0.20;0.20;;;;;;;5.14;100.00;98435.78;4991212;28;20453;-47
2020/12/07 05:49:53;;;;;;;0.20;0.20;;;;;;;5.08;100.00;98446.56;4984542;28;20932;-48
2020/12/07 05:52:37;;;;;;;0.20;0.10;;;;;;;5.06;100.00;98452.72;4992384;28;20916;-47
2020/12/07 05:55:03;;;;;;;1.47;1.47;;;;;;;5.10;100.00;98458.75;4992942;28;20469;-48
2020/12/07 05:57:31;;;;;;;0.30;0.30;;;;;;;5.15;100.00;98463.84;4992621;28;20504;-48
2020/12/07 06:00:06;;;;;;;0.20;0.10;;;;;;;5.10;100.00;98464.00;4989961;28;20966;-48
2020/12/07 06:02:33;;;;;;;0.20;0.20;;;;;;;5.19;100.00;98468.06;4974346;28;20449;-48
2020/12/07 06:05:02;;;;;;;0.20;0.10;;;;;;;5.15;100.00;98477.88;4992588;28;20497;-47
2020/12/07 06:07:34;;;;;;;0.20;0.10;;;;;;;5.19;100.00;98474.19;4992907;28;20453;-48
2020/12/07 06:10:03;;;;;;;0.20;0.10;;;;;;;5.18;100.00;98479.53;4991057;28;20445;-48
2020/12/07 06:12:36;;;;;;;0.20;0.20;;;;;;;5.14;100.00;98496.34;4992589;28;20456;-48
2020/12/07 06:15:03;;;;;;;0.30;0.20;;;;;;;5.19;100.00;98492.63;4992780;28;20523;-48
2020/12/07 06:17:31;;;;;;;0.20;0.10;;;;;;;5.23;100.00;98486.34;4992860;28;20453;-48
2020/12/07 06:19:57;;;;;;;0.20;0.10;;;;;;;5.35;100.00;98488.56;4985965;28;21011;-47
2020/12/07 06:22:24;;;;;;;0.30;0.10;;;;;;;5.34;100.00;98491.22;4986155;28;20457;-48
2020/12/07 06:24:52;;;;;;;0.20;0.13;;;;;;;5.32;100.00;98495.69;4992222;28;21017;-48
2020/12/07 06:27:18;;;;;;;7.10;1.80;;;;;;;5.26;100.00;98491.50;4992410;28;20453;-48
2020/12/07 06:30:00;;;;;;;0.20;0.10;;;;;;;5.24;100.00;98497.75;4992692;28;20829;-47
2020/12/07 06:32:47;;;;;;;0.93;0.93;;;;;;;5.22;100.00;98494.31;4992701;28;20457;-48
2020/12/07 06:35:14;;;;;;;0.20;0.10;;;;;;;5.25;100.00;98489.78;4992369;28;20473;-49
2020/12/07 06:37:46;;;;;;;0.20;0.13;;;;;;;5.26;100.00;98496.78;4981460;28;20511;-47
2020/12/07 06:40:14;;;;;;;0.20;0.10;;;;;;;5.35;100.00;98500.88;4986159;28;20457;-48
2020/12/07 06:42:43;;;;;;;0.20;0.10;;;;;;;5.24;100.00;98497.75;4966949;28;20879;-48
2020/12/07 06:45:20;;;;;;;0.20;0.20;;;;;;;5.31;100.00;98504.50;4992071;28;20982;-47
2020/12/07 06:47:49;;;;;;;0.30;0.30;;;;;;;5.29;100.00;98506.34;4992003;28;20445;-47
2020/12/07 06:50:18;;;;;;;0.20;0.10;;;;;;;5.22;100.00;98510.13;4992433;28;20461;-48
2020/12/07 06:52:46;;;;;;;0.20;0.17;;;;;;;5.19;100.00;98512.84;4992313;28;20492;-48
2020/12/07 06:55:17;;;;;;;0.20;0.20;;;;;;;5.26;100.00;98504.69;4990772;28;20967;-48
2020/12/07 06:57:48;;;;;;;0.30;0.20;;;;;;;5.21;100.00;98517.16;4995229;28;20456;-48
2020/12/07 07:00:27;;;;;;;0.20;0.10;;;;;;;5.21;100.00;98527.69;4995300;28;20461;-48
2020/12/07 07:02:56;;;;;;;0.20;0.20;;;;;;;5.17;100.00;98533.97;4996042;28;20452;-48
2020/12/07 07:05:24;;;;;;;0.20;0.20;;;;;;;5.28;100.00;98539.72;4989134;28;20498;-47
2020/12/07 07:07:52;;;;;;;0.20;0.10;;;;;;;5.20;100.00;98528.59;4987788;28;20453;-48
2020/12/07 07:10:19;;;;;;;0.27;0.17;;;;;;;5.32;100.00;98532.56;4995668;28;20453;-48
2020/12/07 07:12:46;;;;;;;0.20;0.20;;;;;;;5.22;100.00;98536.47;4995330;28;20884;-48
2020/12/07 07:15:13;;;;;;;0.30;0.20;;;;;;;5.17;100.00;98538.38;4995646;28;20470;-48
2020/12/07 07:17:44;;;;;;;0.20;0.10;;;;;;;5.14;100.00;98543.75;4995851;28;20449;-49
2020/12/07 07:20:15;;;;;;;0.20;0.20;;;;;;;5.13;100.00;98549.94;4995627;28;20504;-48
2020/12/07 07:22:47;;;;;;;0.20;0.10;;;;;;;5.12;100.00;98553.47;4995386;28;20942;-48
2020/12/07 07:30:31;;;;;;;0.20;0.20;;;;;;;5.21;100.00;98553.19;4995544;28;20508;-48
2020/12/07 07:32:57;;;;;;;0.20;0.10;;;;;;;5.46;100.00;98556.63;4995411;28;20457;-47
2020/12/07 07:35:26;;;;;;;0.30;0.20;;;;;;;5.26;100.00;98556.50;4995114;28;20465;-49
2020/12/07 07:37:52;;;;;;;0.20;0.20;;;;;;;5.35;100.00;98561.44;4982282;28;20449;-48
2020/12/07 07:40:24;;;;;;;0.70;0.70;;;;;;;5.27;100.00;98569.63;4989019;28;20889;-48
2020/12/07 07:43:01;;;;;;;0.20;0.20;;;;;;;5.20;100.00;98573.34;4995098;28;20453;-47
2020/12/07 07:45:33;;;;;;;0.20;0.20;;;;;;;5.28;100.00;98573.97;4994809;28;20504;-48
2020/12/07 08:17:49;;;;;;;0.20;0.17;;;;;;;5.33;100.00;98601.00;4994766;28;20445;-48
2020/12/07 08:20:16;;;;;;;0.20;0.10;;;;;;;5.37;100.00;98598.28;4994829;28;20450;-48
2020/12/07 08:22:54;;;;;;;0.20;0.10;;;;;;;5.38;100.00;98603.50;4992492;28;20461;-48
2020/12/07 08:25:20;;;;;;;0.20;0.10;;;;;;;5.42;100.00;98607.72;4975045;28;20568;-48
2020/12/07 08:27:46;;;;;;;0.20;0.20;;;;;;;5.46;100.00;98611.97;4991242;28;20934;-48
2020/12/07 08:30:13;;;;;;;0.20;0.10;;;;;;;5.46;100.00;98614.59;4994644;28;20449;-48
2020/12/07 08:32:39;;;;;;;0.20;0.10;;;;;;;5.47;100.00;98611.06;4994373;28;20462;-48
2020/12/07 08:35:12;;;;;;;0.20;0.10;;;;;;;5.56;100.00;98618.66;4994348;28;20888;-48
2020/12/07 08:37:45;;;;;;;0.20;0.20;;;;;;;5.61;100.00;98626.38;4983095;28;20461;-48
2020/12/07 08:40:11;;;;;;;0.20;0.13;;;;;;;5.74;100.00;98635.56;4987139;28;20528;-48
2020/12/07 08:42:38;;;;;;;0.20;0.10;;;;;;;5.70;100.00;98639.25;4993973;28;20461;-48
2020/12/07 08:45:04;;;;;;;0.20;0.20;;;;;;;5.74;100.00;98640.84;4994058;28;20493;-48
2020/12/07 08:47:31;;;;;;;0.20;0.20;;;;;;;5.73;100.00;98651.44;4994164;28;20456;-48
2020/12/07 08:49:57;;;;;;;0.20;0.20;;;;;;;5.72;100.00;98652.34;4993873;28;20449;-48
2020/12/07 08:52:23;;;;;;;0.20;0.20;;;;;;;5.76;100.00;98648.72;4993705;28;20501;-47
2020/12/07 08:54:49;;;;;;;1.80;1.80;;;;;;;5.70;100.00;98647.16;4993859;28;20465;-48
2020/12/07 08:57:15;;;;;;;0.20;0.20;;;;;;;5.73;100.00;98641.75;4993791;28;20461;-48
2020/12/07 08:59:41;;;;;;;0.20;0.20;;;;;;;5.77;100.00;98643.41;4994144;28;20454;-48
2020/12/07 09:02:08;;;;;;;0.23;0.10;;;;;;;5.75;100.00;98642.56;4992631;28;20457;-48
2020/12/07 09:04:34;;;;;;;0.20;0.20;;;;;;;5.75;100.00;98654.88;4993470;28;20564;-48
2020/12/07 09:07:00;;;;;;;0.20;0.10;;;;;;;5.90;100.00;98651.75;4993653;28;20450;-48
2020/12/07 09:09:26;;;;;;;0.20;0.10;;;;;;;5.93;100.00;98654.28;4991327;28;20556;-48
2020/12/07 09:11:52;;;;;;;0.30;0.10;;;;;;;5.93;100.00;98655.13;4993883;28;20457;-48
2020/12/07 09:14:18;;;;;;;0.30;0.20;;;;;;;6.06;100.00;98660.81;4993549;28;20486;-48
2020/12/07 09:16:44;;;;;;;0.30;0.20;;;;;;;5.96;100.00;98663.84;4993359;28;20454;-50
2020/12/07 09:19:10;;;;;;;0.30;0.20;;;;;;;6.01;100.00;98660.13;4993483;28;20449;-48
2020/12/07 09:21:36;;;;;;;0.20;0.13;;;;;;;5.99;100.00;98667.22;4986884;28;20450;-51
2020/12/07 09:24:03;;;;;;;0.30;0.30;;;;;;;6.28;100.00;98660.88;4973765;28;21015;-48
2020/12/07 09:26:29;;;;;;;0.20;0.20;;;;;;;6.45;100.00;98665.53;4992802;28;20528;-50
2020/12/07 09:28:55;;;;;;;0.30;0.20;;;;;;;6.68;100.00;98665.50;4993121;28;20449;-48
2020/12/07 09:31:21;;;;;;;0.30;0.20;;;;;;;6.71;100.00;98673.28;4993413;28;20500;-47
2020/12/07 09:33:47;;;;;;;0.20;0.13;;;;;;;6.98;100.00;98673.13;4992999;28;20593;-48
2020/12/07 09:36:14;;;;;;;0.80;0.80;;;;;;;6.74;100.00;98678.47;4988241;28;20451;-50
2020/12/07 09:38:40;;;;;;;0.30;0.20;;;;;;;6.58;100.00;98676.47;4979092;28;20932;-48
2020/12/07 09:41:07;;;;;;;0.30;0.20;;;;;;;6.60;100.00;98679.94;4993289;28;20449;-49
2020/12/07 09:43:35;;;;;;;0.30;0.20;;;;;;;6.95;100.00;98678.53;4992696;28;20478;-48
2020/12/07 09:46:01;;;;;;;0.30;0.20;;;;;;;6.67;100.00;98676.97;4993316;28;20548;-48
2020/12/07 09:48:27;;;;;;;2.97;1.90;;;;;;;6.98;100.00;98665.19;4992802;28;20453;-49
2020/12/07 09:50:54;;;;;;;0.30;0.20;;;;;;;6.78;100.00;98671.28;4992828;28;20461;-48
2020/12/07 09:53:21;;;;;;;0.27;0.10;;;;;;;7.11;100.00;98662.00;4992618;28;20460;-50
2020/12/07 09:55:47;;;;;;;0.30;0.20;;;;;;;6.71;100.00;98664.50;4992914;28;20449;-48
2020/12/07 09:58:14;;;;;;;0.23;0.17;;;;;;;6.90;100.00;98669.94;4992902;28;20453;-48
2020/12/07 10:00:40;;;;;;;0.20;0.20;;;;;;;6.86;100.00;98666.56;4992827;28;20453;-48
2020/12/07 10:03:07;;;;;;;0.30;0.20;;;;;;;7.08;100.00;98671.81;4992818;28;20453;-47
2020/12/07 10:05:33;;;;;;;0.30;0.20;;;;;;;7.11;100.00;98677.84;4993334;28;20469;-55
2020/12/07 10:07:59;;;;;;;0.27;0.20;;;;;;;6.76;100.00;98676.63;4991482;28;20458;-55
2020/12/07 10:10:25;;;;;;;0.30;0.20;;;;;;;6.86;100.00;98679.78;4992695;28;20453;-56
2020/12/07 10:13:00;;;;;;;0.30;0.20;;;;;;;6.95;100.00;98686.44;4992627;28;20524;-55
2020/12/07 10:15:26;;;;;;;0.30;0.20;;;;;;;6.83;100.00;98687.78;4992557;28;20470;-54
2020/12/07 10:17:52;;;;;;;0.20;0.20;;;;;;;6.67;100.00;98684.03;4992491;28;20552;-53
2020/12/07 10:20:18;;;;;;;0.20;0.20;;;;;;;6.95;100.00;98678.53;4992816;28;21001;-55
2020/12/07 10:22:44;;;;;;;0.30;0.30;;;;;;;6.98;100.00;98688.97;4992619;28;20453;-56
2020/12/07 10:25:10;;;;;;;0.30;0.20;;;;;;;7.19;100.00;98687.25;4992747;28;20501;-55
2020/12/07 10:27:36;;;;;;;0.30;0.20;;;;;;;6.90;100.00;98683.13;4990452;28;20454;-55
2020/12/07 10:30:03;;;;;;;0.20;0.10;;;;;;;6.84;100.00;98687.72;4982248;28;20453;-55
2020/12/07 10:32:29;;;;;;;0.57;0.57;;;;;;;6.69;100.00;98685.69;4995222;28;20511;-55
2020/12/07 10:34:56;;;;;;;0.30;0.20;;;;;;;6.73;100.00;98700.50;4996155;28;20473;-55
2020/12/07 10:37:26;;;;;;;0.30;0.10;;;;;;;6.90;100.00;98699.00;4985258;28;20450;-55
2020/12/07 10:39:53;;;;;;;0.30;0.20;;;;;;;6.80;100.00;98696.69;4988397;28;20471;-55
2020/12/07 10:42:19;;;;;;;0.30;0.20;;;;;;;6.69;100.00;98696.25;4992339;28;20455;-55
2020/12/07 10:44:45;;;;;;;0.30;0.20;;;;;;;6.90;100.00;98701.63;4987729;28;20901;-55
2020/12/07 10:47:11;;;;;;;0.30;0.20;;;;;;;7.08;100.00;98706.19;4996208;28;20453;-55
2020/12/07 10:49:37;;;;;;;0.30;0.20;;;;;;;7.04;100.00;98700.16;4996252;28;20512;-56
2020/12/07 10:52:03;;;;;;;0.30;0.10;;;;;;;6.92;100.00;98700.66;4983132;28;20477;-55
2020/12/07 10:54:29;;;;;;;0.37;0.37;;;;;;;7.18;100.00;98698.75;4996331;28;20488;-54
2020/12/07 10:56:56;;;;;;;0.30;0.20;;;;;;;6.99;100.00;98698.59;4995516;28;20943;-56
2020/12/07 10:59:22;;;;;;;0.30;0.20;;;;;;;7.04;100.00;98694.88;4996138;28;20454;-55
2020/12/07 11:01:52;;;;;;;0.30;0.20;;;;;;;7.07;100.00;98694.75;4995501;28;20860;-56
2020/12/07 11:04:18;;;;;;;0.30;0.20;;;;;;;7.01;100.00;98695.00;4995940;28;20473;-56
2020/12/07 11:06:47;;;;;;;0.83;0.83;;;;;;;7.06;100.00;98693.03;4995509;28;20453;-55
2020/12/07 11:09:16;;;;;;;0.30;0.20;;;;;;;7.10;100.00;98697.25;4983084;28;20450;-55
2020/12/07 11:11:45;;;;;;;0.30;0.20;;;;;;;7.22;100.00;98700.34;4994439;28;20523;-56
2020/12/07 11:14:11;;;;;;;0.30;0.20;;;;;;;7.38;100.00;98699.63;4982599;28;20532;-55
2020/12/07 11:16:38;;;;;;;0.30;0.10;;;;;;;7.31;99.38;98695.53;4994398;28;20847;-56
2020/12/07 11:19:04;;;;;;;0.30;0.20;;;;;;;7.39;98.57;98692.56;4995860;28;20540;-55
2020/12/07 11:21:30;;;;;;;0.30;0.20;;;;;;;7.36;99.07;98696.19;4995778;28;20449;-55
2020/12/07 11:23:56;;;;;;;0.30;0.20;;;;;;;7.41;99.46;98696.88;4995042;28;20473;-55
2020/12/07 11:26:22;;;;;;;0.23;0.13;;;;;;;7.49;100.00;98690.41;4995405;28;20857;-55
2020/12/07 11:28:49;;;;;;;0.20;0.20;;;;;;;7.24;99.82;98691.41;4995112;28;20560;-54
2020/12/07 11:31:17;;;;;;;0.30;0.17;;;;;;;7.13;100.00;98697.16;4995256;28;20825;-56
2020/12/07 11:33:44;;;;;;;0.27;0.10;;;;;;;7.02;98.91;98703.78;4995232;28;20559;-56
2020/12/07 11:36:14;;;;;;;0.30;0.20;;;;;;;6.93;99.48;98707.66;4990453;28;20561;-56
2020/12/07 11:39:00;;;;;;;0.30;0.20;;;;;;;7.00;99.42;98703.84;4980978;28;20465;-56
2020/12/07 11:44:13;;;;;;;0.30;0.20;;;;;;;7.15;100.00;98707.66;4993799;28;20975;-55
2020/12/07 11:46:43;;;;;;;0.30;0.20;;;;;;;7.05;98.78;98698.38;4995104;28;20947;-55
2020/12/07 11:49:09;;;;;;;0.30;0.10;;;;;;;7.04;99.50;98696.66;4994752;28;20457;-55
2020/12/07 11:51:35;;;;;;;0.30;0.20;;;;;;;6.95;99.32;98707.59;4994945;28;20805;-55
2020/12/07 11:54:01;;;;;;;0.30;0.10;;;;;;;6.94;100.00;98709.38;4994618;28;20480;-55
2020/12/07 11:56:32;;;;;;;0.30;0.20;;;;;;;6.68;98.29;98707.72;4995252;28;20449;-55
2020/12/07 11:58:59;;;;;;;0.30;0.17;;;;;;;6.60;98.87;98715.09;4994889;28;20453;-55
2020/12/07 12:01:25;;;;;;;0.30;0.13;;;;;;;6.73;99.85;98713.72;4994824;28;20520;-54
2020/12/07 12:03:52;;;;;;;0.20;0.10;;;;;;;6.81;99.39;98713.41;4995019;28;20477;-55
2020/12/07 12:06:31;;;;;;;0.30;0.20;;;;;;;6.82;99.59;98715.13;4994651;28;20493;-54
2020/12/07 12:08:57;;;;;;;0.30;0.20;;;;;;;6.89;99.67;98721.03;4984282;28;20497;-55
2020/12/07 12:11:34;;;;;;;0.30;0.10;;;;;;;6.84;98.36;98716.78;4990699;28;20460;-55
2020/12/07 12:14:03;;;;;;;0.30;0.20;;;;;;;6.68;98.82;98713.00;4994780;28;20476;-56
2020/12/07 12:16:29;;;;;;;0.30;0.20;;;;;;;6.86;97.66;98723.81;4990877;28;20450;-56
2020/12/07 12:19:03;;;;;;;0.30;0.20;;;;;;;6.67;99.55;98721.84;4986827;28;20567;-56